Time;durP1;ratioP1;P1;durP2;ratioP2;P2;SDS_P1;SDS_P2;PMS_P1;PMS_P2;Temp;Humidity;BMP_temperature;BMP_pressure;BME280_temperature;BME280_humidity;BME280_pressure;Samples;Min_cycle;Max_cycle;Signal;HPM_P1;HPM_P2
2022/10/31 00:00:17;;;;;;;16.65;10.88;;;13.00;99.90;;;;;;5090812;28;20091;-63
2022/10/31 00:02:43;;;;;;;17.17;10.75;;;13.00;99.90;;;;;;5091056;28;20040;-64
2022/10/31 00:05:08;;;;;;;19.42;11.40;;;13.00;99.90;;;;;;5089466;28;20125;-63
2022/10/31 00:07:34;;;;;;;16.00;11.43;;;13.00;99.90;;;;;;5090879;28;20185;-64
2022/10/31 00:09:59;;;;;;;17.63;11.80;;;13.00;99.90;;;;;;5091013;28;20730;-63
2022/10/31 00:12:26;;;;;;;16.73;11.13;;;13.00;99.90;;;;;;5089799;28;20131;-63
2022/10/31 00:14:52;;;;;;;15.93;10.98;;;13.00;99.90;;;;;;5090535;28;20600;-63
2022/10/31 00:17:18;;;;;;;18.65;11.65;;;12.90;99.90;;;;;;5090830;28;20032;-63
2022/10/31 00:19:43;;;;;;;20.05;11.80;;;12.80;99.90;;;;;;5090809;28;20559;-63
2022/10/31 00:22:09;;;;;;;18.25;11.40;;;12.70;99.90;;;;;;5090751;28;20119;-64
2022/10/31 00:24:35;;;;;;;17.50;10.85;;;12.60;99.90;;;;;;5090103;28;20119;-63
2022/10/31 00:27:00;;;;;;;20.67;11.07;;;12.60;99.90;;;;;;5090369;28;20043;-64
2022/10/31 00:29:26;;;;;;;14.13;10.32;;;12.60;99.90;;;;;;5090673;28;20118;-63
2022/10/31 00:31:52;;;;;;;18.25;11.45;;;12.60;99.90;;;;;;5090255;28;20081;-63
2022/10/31 00:34:18;;;;;;;15.82;10.52;;;12.60;99.90;;;;;;5088929;28;20047;-63
2022/10/31 00:36:43;;;;;;;16.00;9.80;;;12.60;99.90;;;;;;5090348;28;20040;-63
2022/10/31 00:39:09;;;;;;;13.48;10.18;;;12.60;99.90;;;;;;5090386;28;20120;-63
2022/10/31 00:41:34;;;;;;;15.98;10.05;;;12.60;99.90;;;;;;5090632;28;20071;-63
2022/10/31 00:44:00;;;;;;;15.57;9.50;;;12.50;99.90;;;;;;5090287;28;20090;-63
2022/10/31 00:46:26;;;;;;;16.25;9.40;;;12.50;99.90;;;;;;5090349;28;20032;-64
2022/10/31 00:48:51;;;;;;;16.70;9.68;;;12.50;99.90;;;;;;5090651;28;20494;-63
2022/10/31 00:51:17;;;;;;;12.05;8.70;;;12.50;99.90;;;;;;5090777;28;20046;-63
2022/10/31 00:53:42;;;;;;;12.52;8.65;;;12.50;99.90;;;;;;5089839;28;20050;-64
2022/10/31 00:56:08;;;;;;;13.30;9.02;;;12.40;99.90;;;;;;5088731;28;20083;-63
2022/10/31 00:58:34;;;;;;;13.32;8.13;;;12.40;99.90;;;;;;5088505;28;20117;-63
2022/10/31 01:00:59;;;;;;;10.23;8.00;;;12.40;99.90;;;;;;5090477;28;20048;-64
2022/10/31 01:03:27;;;;;;;13.85;8.40;;;12.40;99.90;;;;;;5090097;28;20089;-63
2022/10/31 01:06:11;;;;;;;12.82;8.50;;;12.40;99.90;;;;;;5090054;28;20389;-63
2022/10/31 01:08:37;;;;;;;13.98;7.65;;;12.40;99.90;;;;;;5090036;28;20111;-63
2022/10/31 01:11:12;;;;;;;10.88;8.07;;;12.40;99.90;;;;;;5089096;28;20028;-63
2022/10/31 01:13:39;;;;;;;10.20;7.30;;;12.40;99.90;;;;;;5089760;28;20059;-63
2022/10/31 01:16:06;;;;;;;11.70;7.43;;;12.40;99.90;;;;;;5090091;28;20108;-63
2022/10/31 01:18:32;;;;;;;12.30;7.72;;;12.40;99.90;;;;;;5089710;28;20430;-63
2022/10/31 01:21:13;;;;;;;13.23;7.60;;;12.40;99.90;;;;;;5089962;28;20107;-63
2022/10/31 01:23:39;;;;;;;10.25;7.45;;;12.40;99.90;;;;;;5089542;28;20162;-63
2022/10/31 01:26:12;;;;;;;12.48;7.03;;;12.40;99.90;;;;;;5089942;28;20703;-64
2022/10/31 01:28:42;;;;;;;10.95;7.13;;;12.40;99.90;;;;;;5088395;28;20040;-64
2022/10/31 01:31:09;;;;;;;8.82;7.00;;;12.40;99.90;;;;;;5089707;28;20528;-63
2022/10/31 01:33:36;;;;;;;11.52;7.70;;;12.40;99.90;;;;;;5089361;28;20127;-64
2022/10/31 01:36:11;;;;;;;12.00;7.43;;;12.20;99.90;;;;;;5090394;28;20055;-63
2022/10/31 01:38:36;;;;;;;10.00;7.60;;;12.30;99.90;;;;;;5093867;28;20047;-64
2022/10/31 01:41:02;;;;;;;11.88;7.53;;;12.30;99.90;;;;;;5093746;28;20036;-63
2022/10/31 01:43:52;;;;;;;11.80;7.60;;;12.20;99.90;;;;;;5093432;28;20111;-63
2022/10/31 01:46:31;;;;;;;11.57;7.38;;;12.20;99.90;;;;;;5091731;28;20082;-62
2022/10/31 01:49:00;;;;;;;12.85;7.72;;;12.10;99.90;;;;;;5093445;28;20093;-63
2022/10/31 01:51:34;;;;;;;14.18;8.02;;;12.10;99.90;;;;;;5093238;28;20035;-64
2022/10/31 01:54:11;;;;;;;13.35;7.90;;;12.10;99.90;;;;;;5093144;28;20104;-63
2022/10/31 01:56:40;;;;;;;11.60;7.50;;;12.10;99.90;;;;;;5092150;28;20105;-63
2022/10/31 01:59:08;;;;;;;12.05;7.90;;;12.00;99.90;;;;;;5093023;28;20055;-63
2022/10/31 02:01:34;;;;;;;12.27;7.60;;;12.00;99.90;;;;;;5093140;28;20036;-64
2022/10/31 02:04:00;;;;;;;13.30;8.38;;;12.00;99.90;;;;;;5093459;28;20040;-63
2022/10/31 02:06:41;;;;;;;15.95;8.43;;;12.00;99.90;;;;;;5093102;28;20532;-63
2022/10/31 02:09:06;;;;;;;13.95;8.63;;;12.00;99.90;;;;;;5093268;28;20036;-63
2022/10/31 02:11:34;;;;;;;13.88;8.73;;;11.90;99.90;;;;;;5093406;28;20044;-63
2022/10/31 02:14:02;;;;;;;11.00;8.02;;;11.90;99.90;;;;;;5093332;28;20085;-63
2022/10/31 02:16:28;;;;;;;11.35;7.82;;;11.90;99.90;;;;;;5093427;28;20048;-63
2022/10/31 02:18:54;;;;;;;16.35;8.18;;;11.90;99.90;;;;;;5093312;28;20058;-62
2022/10/31 02:21:37;;;;;;;12.55;8.30;;;11.80;99.90;;;;;;5091813;28;20076;-63
2022/10/31 02:24:32;;;;;;;16.92;8.80;;;11.90;99.90;;;;;;5093031;28;20070;-62
2022/10/31 02:27:08;;;;;;;14.77;8.98;;;11.90;99.90;;;;;;5090502;28;20112;-62
2022/10/31 02:29:52;;;;;;;11.75;8.48;;;11.90;99.90;;;;;;5093200;28;20036;-63
2022/10/31 02:32:27;;;;;;;14.15;9.23;;;11.90;99.90;;;;;;5091426;28;20040;-63
2022/10/31 02:35:02;;;;;;;13.38;9.05;;;11.90;99.90;;;;;;5092827;28;20345;-62
2022/10/31 02:37:46;;;;;;;13.02;8.95;;;11.80;99.90;;;;;;5092771;28;20040;-63
2022/10/31 02:40:22;;;;;;;15.38;9.75;;;11.80;99.90;;;;;;5092534;28;20389;-63
2022/10/31 02:43:05;;;;;;;15.20;9.23;;;11.80;99.90;;;;;;5092509;28;20048;-62
2022/10/31 02:45:58;;;;;;;16.77;9.82;;;11.80;99.90;;;;;;5072480;28;20024;-63
2022/10/31 02:48:27;;;;;;;13.25;9.15;;;11.80;99.90;;;;;;5076924;28;20035;-62
2022/10/31 02:50:57;;;;;;;20.02;9.52;;;11.70;99.90;;;;;;5092604;28;20040;-62
2022/10/31 02:53:23;;;;;;;15.35;9.02;;;11.70;99.90;;;;;;5092100;28;20036;-62
2022/10/31 02:56:13;;;;;;;14.23;9.52;;;11.70;99.90;;;;;;5092286;28;20481;-62
2022/10/31 02:58:49;;;;;;;16.02;9.73;;;11.70;99.90;;;;;;5078878;28;20036;-62
2022/10/31 03:01:29;;;;;;;11.93;9.07;;;11.70;99.90;;;;;;5092050;28;20731;-62
2022/10/31 03:04:19;;;;;;;12.77;9.18;;;11.70;99.90;;;;;;5090839;28;20695;-62
2022/10/31 03:07:02;;;;;;;14.98;9.98;;;11.60;99.90;;;;;;5092226;28;20042;-62
2022/10/31 03:09:51;;;;;;;14.25;9.43;;;11.60;99.90;;;;;;5092368;28;20099;-63
2022/10/31 03:12:33;;;;;;;14.75;10.57;;;11.60;99.90;;;;;;5079028;28;20631;-62
2022/10/31 03:15:19;;;;;;;16.65;9.93;;;11.60;99.90;;;;;;5091755;28;20036;-63
2022/10/31 03:18:14;;;;;;;15.38;10.32;;;11.50;99.90;;;;;;5091718;28;20079;-63
2022/10/31 03:20:45;;;;;;;15.10;10.13;;;11.50;99.90;;;;;;5091642;28;20040;-62
2022/10/31 03:23:15;;;;;;;14.57;9.88;;;11.50;99.90;;;;;;5091606;28;20096;-62
2022/10/31 03:25:43;;;;;;;17.52;10.73;;;11.50;99.90;;;;;;5090413;28;20120;-62
2022/10/31 03:28:11;;;;;;;14.82;10.30;;;11.50;99.90;;;;;;5091640;28;20093;-62
2022/10/31 03:30:39;;;;;;;15.88;10.05;;;11.40;99.90;;;;;;5091605;28;20044;-63
2022/10/31 03:33:09;;;;;;;13.95;10.50;;;11.40;99.90;;;;;;5091140;28;20469;-62
2022/10/31 03:35:38;;;;;;;17.67;10.20;;;11.40;99.90;;;;;;5090000;28;20047;-62
2022/10/31 03:38:05;;;;;;;14.32;10.50;;;11.30;99.90;;;;;;5091259;28;20032;-63
2022/10/31 03:40:33;;;;;;;16.30;10.52;;;11.30;99.90;;;;;;5091239;28;20032;-62
2022/10/31 03:43:03;;;;;;;14.65;10.75;;;11.30;99.90;;;;;;5076782;28;20548;-62
2022/10/31 03:45:31;;;;;;;14.23;10.48;;;11.30;99.90;;;;;;5091088;28;20063;-62
2022/10/31 03:47:59;;;;;;;15.20;10.68;;;11.30;99.90;;;;;;5090903;28;20055;-62
2022/10/31 03:50:30;;;;;;;16.70;10.68;;;11.30;99.90;;;;;;5090829;28;20445;-63
2022/10/31 03:53:04;;;;;;;14.90;10.65;;;11.30;99.90;;;;;;5090620;28;20055;-62
2022/10/31 03:55:51;;;;;;;15.40;9.93;;;11.20;99.90;;;;;;5090566;28;20051;-63
2022/10/31 03:58:25;;;;;;;14.52;10.45;;;11.20;99.90;;;;;;5090376;28;20040;-63
2022/10/31 04:00:51;;;;;;;16.17;11.00;;;11.20;99.90;;;;;;5090473;28;20110;-62
2022/10/31 04:03:23;;;;;;;17.38;11.15;;;11.20;99.90;;;;;;5090977;28;20063;-62
2022/10/31 04:05:52;;;;;;;13.18;10.02;;;11.10;99.90;;;;;;5091280;28;20278;-62
2022/10/31 04:08:22;;;;;;;16.08;11.07;;;11.10;99.90;;;;;;5091080;28;20101;-63
2022/10/31 04:10:49;;;;;;;15.20;11.35;;;11.10;99.90;;;;;;5091114;28;20040;-63
2022/10/31 04:13:23;;;;;;;16.20;10.93;;;11.10;99.90;;;;;;5090504;28;20083;-62
2022/10/31 04:15:51;;;;;;;17.05;10.88;;;11.10;99.90;;;;;;5090880;28;20036;-62
2022/10/31 04:18:16;;;;;;;17.40;11.50;;;11.10;99.90;;;;;;5090522;28;20409;-62
2022/10/31 04:20:42;;;;;;;13.88;10.77;;;11.00;99.90;;;;;;5089489;28;20111;-62
2022/10/31 04:23:26;;;;;;;16.98;10.90;;;11.00;99.90;;;;;;5090235;28;20036;-62
2022/10/31 04:25:52;;;;;;;14.45;10.60;;;11.00;99.90;;;;;;5077526;28;20498;-63
2022/10/31 04:28:18;;;;;;;15.18;10.88;;;11.00;99.90;;;;;;5090842;28;20036;-63
2022/10/31 04:30:44;;;;;;;13.90;10.35;;;10.90;99.90;;;;;;5090630;28;20074;-63
2022/10/31 04:33:09;;;;;;;14.27;10.88;;;10.90;99.90;;;;;;5090409;28;20090;-62
2022/10/31 04:35:35;;;;;;;14.77;10.30;;;10.90;99.90;;;;;;5090405;28;20090;-62
2022/10/31 04:38:01;;;;;;;13.48;10.63;;;10.90;99.90;;;;;;5090205;28;20040;-62
2022/10/31 04:40:26;;;;;;;17.88;11.70;;;10.90;99.90;;;;;;5089416;28;20036;-62
2022/10/31 04:42:52;;;;;;;15.10;10.95;;;10.90;99.90;;;;;;5089342;28;20514;-62
2022/10/31 04:45:18;;;;;;;14.23;10.55;;;10.80;99.90;;;;;;5090456;28;20039;-63
2022/10/31 04:47:43;;;;;;;16.50;11.63;;;10.80;99.90;;;;;;5090458;28;20129;-62
2022/10/31 04:50:09;;;;;;;17.10;10.95;;;10.90;99.90;;;;;;5090488;28;20055;-62
2022/10/31 04:52:41;;;;;;;14.23;11.00;;;10.80;99.90;;;;;;5090122;28;20043;-63
2022/10/31 04:55:07;;;;;;;17.25;12.10;;;10.80;99.90;;;;;;5090217;28;20055;-62
2022/10/31 04:57:43;;;;;;;18.45;11.75;;;10.80;99.90;;;;;;5088986;28;20044;-63
2022/10/31 05:00:10;;;;;;;17.83;11.70;;;10.80;99.90;;;;;;5089973;28;20449;-62
2022/10/31 05:02:57;;;;;;;18.60;12.07;;;10.80;99.90;;;;;;5090172;28;20048;-62
2022/10/31 05:05:25;;;;;;;18.20;12.35;;;10.80;99.90;;;;;;5089551;28;20052;-63
2022/10/31 05:07:52;;;;;;;19.23;12.88;;;10.80;99.90;;;;;;5090083;28;20051;-62
2022/10/31 05:10:20;;;;;;;18.02;13.18;;;10.80;99.90;;;;;;5090058;28;20346;-62
2022/10/31 05:12:53;;;;;;;18.35;12.82;;;10.80;99.90;;;;;;5088831;28;20046;-62
2022/10/31 05:15:20;;;;;;;16.30;13.00;;;10.70;99.90;;;;;;5088745;28;20040;-62
2022/10/31 05:17:46;;;;;;;17.73;12.55;;;10.70;99.90;;;;;;5090431;28;20047;-62
2022/10/31 05:20:12;;;;;;;17.23;13.10;;;10.70;99.90;;;;;;5071879;28;20089;-63
2022/10/31 05:22:43;;;;;;;19.27;12.52;;;10.70;99.90;;;;;;5090036;28;20132;-63
2022/10/31 05:25:08;;;;;;;19.92;12.40;;;10.70;99.90;;;;;;5089777;28;20056;-63
2022/10/31 05:27:34;;;;;;;18.33;12.68;;;10.60;99.90;;;;;;5089341;28;20071;-63
2022/10/31 05:29:59;;;;;;;19.17;13.82;;;10.60;99.90;;;;;;5089384;28;20031;-62
2022/10/31 05:32:25;;;;;;;18.48;12.68;;;10.60;99.90;;;;;;5088991;28;20126;-62
2022/10/31 05:34:51;;;;;;;15.27;12.82;;;10.60;99.90;;;;;;5088256;28;20127;-63
2022/10/31 05:37:16;;;;;;;17.58;12.70;;;10.60;99.90;;;;;;5088813;28;20028;-62
2022/10/31 05:39:42;;;;;;;16.05;12.57;;;10.60;99.90;;;;;;5088921;28;20572;-63
2022/10/31 05:42:07;;;;;;;18.27;13.13;;;10.60;99.90;;;;;;5088886;28;20376;-63
2022/10/31 05:44:33;;;;;;;17.75;13.40;;;10.50;99.90;;;;;;5085971;28;20063;-62
2022/10/31 05:46:58;;;;;;;20.05;14.25;;;10.50;99.90;;;;;;5089013;28;20063;-63
2022/10/31 05:49:24;;;;;;;17.80;12.80;;;10.50;99.90;;;;;;5088908;28;20031;-62
2022/10/31 05:51:49;;;;;;;16.88;12.80;;;10.50;99.90;;;;;;5088474;28;20066;-62
2022/10/31 05:54:15;;;;;;;15.00;12.23;;;10.50;99.90;;;;;;5086963;28;20036;-63
2022/10/31 05:56:40;;;;;;;14.75;11.82;;;10.40;99.90;;;;;;5087346;28;20052;-62
2022/10/31 05:59:06;;;;;;;16.55;12.45;;;10.40;99.90;;;;;;5088802;28;20102;-62
2022/10/31 06:01:32;;;;;;;16.10;12.45;;;10.40;99.90;;;;;;5088193;28;20054;-62
2022/10/31 06:03:57;;;;;;;19.45;12.07;;;10.40;99.90;;;;;;5088531;28;20056;-62
2022/10/31 06:06:23;;;;;;;16.88;12.23;;;10.40;99.90;;;;;;5088563;28;20465;-62
2022/10/31 06:08:48;;;;;;;15.32;11.45;;;10.30;99.90;;;;;;5087377;28;20444;-62
2022/10/31 06:11:14;;;;;;;14.60;11.13;;;10.30;99.90;;;;;;5087798;28;20048;-62
2022/10/31 06:13:39;;;;;;;15.88;11.95;;;10.30;99.90;;;;;;5088772;28;20063;-63
2022/10/31 06:16:05;;;;;;;16.27;12.32;;;10.30;99.90;;;;;;5089097;28;20043;-62
2022/10/31 06:18:30;;;;;;;15.13;12.95;;;10.30;99.90;;;;;;5089477;28;20044;-62
2022/10/31 06:20:56;;;;;;;17.92;12.50;;;10.30;99.90;;;;;;5083859;28;20059;-63
2022/10/31 06:23:22;;;;;;;16.65;12.73;;;10.30;99.90;;;;;;5083749;28;20123;-63
2022/10/31 06:25:51;;;;;;;19.38;14.43;;;10.30;99.90;;;;;;5092643;28;20241;-62
2022/10/31 06:28:17;;;;;;;17.27;14.02;;;10.30;99.90;;;;;;5092900;28;20040;-63
2022/10/31 06:30:42;;;;;;;15.98;12.63;;;10.30;99.90;;;;;;5090630;28;20472;-62
2022/10/31 06:33:08;;;;;;;15.90;12.15;;;10.30;99.90;;;;;;5092296;28;20047;-63
2022/10/31 06:35:34;;;;;;;15.18;12.25;;;10.30;99.90;;;;;;5091660;28;20055;-63
2022/10/31 06:37:59;;;;;;;14.65;12.02;;;10.30;99.90;;;;;;5091514;28;20405;-62
2022/10/31 06:40:25;;;;;;;14.23;11.75;;;10.30;99.90;;;;;;5090256;28;20055;-62
2022/10/31 06:42:58;;;;;;;16.27;13.35;;;10.30;99.90;;;;;;5089928;28;20354;-64
2022/10/31 06:45:24;;;;;;;14.13;12.45;;;10.20;99.90;;;;;;5088243;28;20043;-62
2022/10/31 06:47:53;;;;;;;15.75;12.82;;;10.20;99.90;;;;;;5091139;28;20036;-64
2022/10/31 06:50:20;;;;;;;16.80;13.27;;;10.20;99.90;;;;;;5090932;28;20036;-63
2022/10/31 06:52:53;;;;;;;17.45;13.45;;;10.20;99.90;;;;;;5089670;28;20063;-63
2022/10/31 06:55:20;;;;;;;14.20;12.02;;;10.20;99.90;;;;;;5090190;28;20044;-63
2022/10/31 06:57:57;;;;;;;15.98;12.60;;;10.20;99.90;;;;;;5089402;28;20457;-63
2022/10/31 07:00:24;;;;;;;17.00;12.95;;;10.20;99.90;;;;;;5089229;28;20806;-62
2022/10/31 07:03:13;;;;;;;15.63;12.65;;;10.20;99.90;;;;;;5091274;28;20036;-63
2022/10/31 07:05:39;;;;;;;19.27;13.02;;;10.20;99.90;;;;;;5084162;28;20109;-63
2022/10/31 07:08:08;;;;;;;17.00;13.75;;;10.20;99.90;;;;;;5090365;28;20135;-63
2022/10/31 07:10:35;;;;;;;14.45;12.90;;;10.20;99.90;;;;;;5090750;28;20436;-64
2022/10/31 07:13:03;;;;;;;14.75;13.15;;;10.30;99.90;;;;;;5072175;28;20457;-63
2022/10/31 07:15:34;;;;;;;17.40;14.27;;;10.30;99.90;;;;;;5090601;28;20067;-63
2022/10/31 07:18:01;;;;;;;17.13;14.73;;;10.20;99.90;;;;;;5090716;28;20035;-63
2022/10/31 07:20:28;;;;;;;17.85;14.98;;;10.30;99.90;;;;;;5090188;28;20731;-63
2022/10/31 07:22:54;;;;;;;17.67;14.70;;;10.30;99.90;;;;;;5090100;28;20036;-63
2022/10/31 07:25:19;;;;;;;21.20;13.68;;;10.30;99.90;;;;;;5089853;28;20039;-63
2022/10/31 07:27:45;;;;;;;20.83;14.52;;;10.30;99.90;;;;;;5090402;28;20404;-64
2022/10/31 07:30:11;;;;;;;19.02;15.02;;;10.40;99.90;;;;;;5090376;28;20374;-62
2022/10/31 07:32:41;;;;;;;17.70;14.43;;;10.40;99.90;;;;;;5090260;28;20084;-63
2022/10/31 07:35:09;;;;;;;17.45;12.93;;;10.40;99.90;;;;;;5090314;28;20044;-62
2022/10/31 07:37:35;;;;;;;18.73;14.90;;;10.50;99.90;;;;;;5088415;28;20479;-62
2022/10/31 07:40:01;;;;;;;16.58;13.60;;;10.50;99.90;;;;;;5091106;28;20048;-62
2022/10/31 07:42:27;;;;;;;15.73;13.40;;;10.50;99.90;;;;;;5090847;28;20190;-62
2022/10/31 07:44:53;;;;;;;16.70;13.75;;;10.60;99.90;;;;;;5090832;28;20454;-63
2022/10/31 07:47:18;;;;;;;19.15;15.18;;;10.60;99.90;;;;;;5090688;28;20101;-62
2022/10/31 07:49:44;;;;;;;18.52;14.52;;;10.60;99.90;;;;;;5090890;28;20040;-63
2022/10/31 07:52:09;;;;;;;17.60;13.90;;;10.60;99.90;;;;;;5090360;28;20135;-62
2022/10/31 07:54:35;;;;;;;17.10;13.90;;;10.70;99.90;;;;;;5090269;28;20076;-62
2022/10/31 07:57:00;;;;;;;19.52;15.05;;;10.70;99.90;;;;;;5090873;28;20047;-62
2022/10/31 07:59:27;;;;;;;17.63;14.75;;;10.80;99.90;;;;;;5090055;28;20048;-63
2022/10/31 08:01:52;;;;;;;17.27;15.02;;;10.80;99.90;;;;;;5090899;28;20043;-62
2022/10/31 08:04:18;;;;;;;17.90;14.85;;;10.90;99.90;;;;;;5090252;28;20111;-63
2022/10/31 08:06:44;;;;;;;18.10;16.13;;;11.00;99.90;;;;;;5090479;28;20028;-63
2022/10/31 08:09:09;;;;;;;19.65;16.80;;;11.10;99.90;;;;;;5090134;28;20035;-62
2022/10/31 08:11:35;;;;;;;21.55;17.27;;;11.20;99.90;;;;;;5090231;28;20056;-63
2022/10/31 08:14:00;;;;;;;18.17;16.27;;;11.30;99.90;;;;;;5088407;28;20061;-62
2022/10/31 08:16:26;;;;;;;19.75;17.27;;;11.30;99.90;;;;;;5090342;28;20347;-64
2022/10/31 08:18:55;;;;;;;20.95;17.27;;;11.20;99.90;;;;;;5090236;28;20036;-62
2022/10/31 08:21:20;;;;;;;19.33;16.45;;;11.30;99.90;;;;;;5089806;28;20040;-62
2022/10/31 08:23:46;;;;;;;21.65;17.75;;;11.50;99.90;;;;;;5088518;28;20441;-63
2022/10/31 08:26:11;;;;;;;19.98;16.55;;;11.60;99.90;;;;;;5070234;28;20050;-64
2022/10/31 08:28:37;;;;;;;23.45;18.33;;;11.60;99.90;;;;;;5090140;28;20099;-63
2022/10/31 08:31:03;;;;;;;21.30;17.40;;;11.70;99.90;;;;;;5089650;28;20409;-63
2022/10/31 08:33:28;;;;;;;21.88;17.77;;;11.70;99.90;;;;;;5087196;28;20070;-65
2022/10/31 08:35:54;;;;;;;23.10;18.48;;;11.80;99.90;;;;;;5088763;28;20374;-63
2022/10/31 08:38:19;;;;;;;24.02;18.42;;;11.80;99.90;;;;;;5088111;28;20168;-64
2022/10/31 08:40:48;;;;;;;25.40;19.75;;;11.90;99.90;;;;;;5089679;28;20082;-63
2022/10/31 08:43:15;;;;;;;23.08;20.20;;;11.80;99.90;;;;;;5089263;28;20032;-61
2022/10/31 08:45:42;;;;;;;24.90;20.13;;;11.80;99.90;;;;;;5088895;28;20031;-63
2022/10/31 08:48:13;;;;;;;25.25;20.70;;;11.80;99.90;;;;;;5089387;28;20315;-62
2022/10/31 08:50:39;;;;;;;25.38;20.92;;;11.80;99.90;;;;;;5090013;28;20357;-63
2022/10/31 08:53:17;;;;;;;28.73;21.65;;;11.90;99.90;;;;;;5089240;28;20069;-62
2022/10/31 08:55:44;;;;;;;26.40;21.20;;;11.90;99.90;;;;;;5089287;28;20441;-62
2022/10/31 08:58:12;;;;;;;24.58;20.70;;;12.10;99.90;;;;;;5086083;28;20032;-62
2022/10/31 09:00:38;;;;;;;24.55;19.92;;;12.20;99.90;;;;;;5089668;28;20371;-62
2022/10/31 09:03:06;;;;;;;24.85;19.60;;;12.30;99.90;;;;;;5089286;28;20050;-62
2022/10/31 09:05:32;;;;;;;23.90;20.00;;;12.40;99.90;;;;;;5089208;28;20075;-62
2022/10/31 09:08:00;;;;;;;26.27;19.65;;;12.40;99.90;;;;;;5089419;28;20028;-63
2022/10/31 09:10:27;;;;;;;25.33;20.73;;;12.40;99.90;;;;;;5089867;28;20036;-64
2022/10/31 09:13:00;;;;;;;23.60;19.52;;;12.50;99.90;;;;;;5089361;28;20059;-63
2022/10/31 09:15:27;;;;;;;24.00;20.27;;;12.60;99.90;;;;;;5089545;28;20130;-65
2022/10/31 09:17:53;;;;;;;28.83;21.60;;;12.70;99.90;;;;;;5089105;28;20040;-62
2022/10/31 09:20:20;;;;;;;26.52;20.30;;;12.70;99.90;;;;;;5089152;28;20067;-63
2022/10/31 09:22:46;;;;;;;23.73;20.25;;;12.70;99.90;;;;;;5088789;28;20044;-64
2022/10/31 09:25:11;;;;;;;26.58;19.52;;;12.80;99.90;;;;;;5088481;28;20036;-64
2022/10/31 09:27:37;;;;;;;26.30;19.73;;;12.80;99.90;;;;;;5089626;28;20433;-62
2022/10/31 09:30:04;;;;;;;25.98;21.52;;;12.80;99.90;;;;;;5087501;28;20044;-63
2022/10/31 09:32:29;;;;;;;24.67;20.15;;;12.90;99.90;;;;;;5087373;28;20050;-63
2022/10/31 09:34:55;;;;;;;26.58;20.80;;;13.00;99.90;;;;;;5089007;28;20036;-63
2022/10/31 09:37:21;;;;;;;23.02;19.40;;;13.10;99.90;;;;;;5089251;28;20111;-63
2022/10/31 09:39:46;;;;;;;25.63;19.38;;;13.10;99.90;;;;;;5089029;28;20040;-63
2022/10/31 09:42:30;;;;;;;25.58;19.60;;;13.10;99.90;;;;;;5088792;28;20050;-63
2022/10/31 09:45:38;;;;;;;25.80;19.70;;;13.20;99.90;;;;;;5088904;28;20043;-64
2022/10/31 09:48:40;;;;;;;26.35;19.88;;;13.10;99.90;;;;;;5066521;28;20044;-63
2022/10/31 09:51:25;;;;;;;25.10;19.17;;;13.10;99.90;;;;;;5079799;28;20078;-63
2022/10/31 09:54:03;;;;;;;26.83;20.23;;;13.10;99.90;;;;;;5088775;28;20040;-63
2022/10/31 09:56:30;;;;;;;27.73;20.98;;;13.10;99.90;;;;;;5089451;28;20143;-63
2022/10/31 09:59:00;;;;;;;28.08;21.23;;;13.10;99.90;;;;;;5090599;28;20051;-63
2022/10/31 10:01:47;;;;;;;26.55;21.08;;;13.10;99.90;;;;;;5092733;28;20412;-64
2022/10/31 10:04:37;;;;;;;29.35;22.38;;;13.20;99.90;;;;;;5092491;28;20032;-63
2022/10/31 10:07:26;;;;;;;29.70;21.85;;;13.20;99.90;;;;;;5093095;28;20605;-63
2022/10/31 10:09:52;;;;;;;30.27;21.70;;;13.30;99.90;;;;;;5092977;28;20039;-63
2022/10/31 10:12:44;;;;;;;29.48;21.77;;;13.40;99.90;;;;;;5092818;28;20047;-62
2022/10/31 10:15:50;;;;;;;28.00;20.88;;;13.50;99.90;;;;;;5092248;28;20487;-62
2022/10/31 10:18:30;;;;;;;24.13;20.05;;;13.70;99.90;;;;;;5092222;28;20066;-62
2022/10/31 10:21:10;;;;;;;25.15;19.77;;;13.90;99.90;;;;;;5092954;28;20036;-63
2022/10/31 10:24:05;;;;;;;26.77;19.23;;;14.00;99.90;;;;;;5092204;28;20377;-63
2022/10/31 10:26:42;;;;;;;24.20;18.08;;;14.20;99.90;;;;;;5092558;28;20093;-63
2022/10/31 10:29:34;;;;;;;23.08;18.38;;;14.30;99.90;;;;;;5092737;28;20357;-62
2022/10/31 10:32:05;;;;;;;23.10;17.42;;;14.50;99.90;;;;;;5092205;28;20040;-64
2022/10/31 10:34:41;;;;;;;22.35;16.02;;;14.70;99.90;;;;;;5092394;28;20044;-63
2022/10/31 10:37:25;;;;;;;21.80;17.08;;;14.80;99.90;;;;;;5092456;28;20036;-63
2022/10/31 10:39:56;;;;;;;20.80;15.90;;;14.90;99.90;;;;;;5092382;28;20476;-63
2022/10/31 10:48:41;;;;;;;18.90;14.52;;;15.20;99.90;;;;;;5091973;28;20404;-63
2022/10/31 10:51:12;;;;;;;;;;;15.20;99.90;;;;;;5092722;28;20364;-62
2022/10/31 10:54:02;;;;;;;17.52;13.48;;;15.20;99.90;;;;;;5091298;28;19980;-63
2022/10/31 10:57:06;;;;;;;16.80;12.65;;;15.20;99.90;;;;;;5091874;28;20063;-63
2022/10/31 10:59:31;;;;;;;18.38;13.55;;;15.30;99.90;;;;;;5087793;28;20137;-64
2022/10/31 11:01:59;;;;;;;16.58;12.45;;;15.30;99.90;;;;;;5091698;28;20052;-63
2022/10/31 11:04:35;;;;;;;15.77;12.70;;;15.40;99.90;;;;;;5091963;28;20035;-63
2022/10/31 11:07:10;;;;;;;16.52;12.52;;;15.50;99.90;;;;;;5091540;28;20043;-63
2022/10/31 11:09:37;;;;;;;16.33;12.38;;;15.40;99.90;;;;;;5090731;28;20111;-64
2022/10/31 11:12:27;;;;;;;16.42;11.73;;;15.40;99.90;;;;;;5091227;28;20119;-62
2022/10/31 11:15:16;;;;;;;18.88;12.00;;;15.50;99.90;;;;;;5091388;28;20044;-63
2022/10/31 11:17:47;;;;;;;16.40;10.93;;;15.50;99.90;;;;;;5081567;28;20127;-63
2022/10/31 11:20:12;;;;;;;17.30;11.75;;;15.40;99.90;;;;;;5091417;28;20035;-63
2022/10/31 11:22:44;;;;;;;18.85;12.02;;;15.50;99.90;;;;;;5091189;28;20136;-63
2022/10/31 11:25:23;;;;;;;13.65;11.38;;;15.40;99.90;;;;;;5091474;28;20058;-62
2022/10/31 11:28:10;;;;;;;15.05;11.93;;;15.50;99.90;;;;;;5091376;28;20394;-64
2022/10/31 11:31:06;;;;;;;15.50;12.50;;;15.60;99.90;;;;;;5091429;28;20063;-64
2022/10/31 11:33:37;;;;;;;16.40;12.20;;;15.60;99.90;;;;;;5090387;28;20462;-64
2022/10/31 11:36:27;;;;;;;15.48;11.52;;;15.60;99.90;;;;;;5088998;28;20074;-63
2022/10/31 11:38:53;;;;;;;18.10;12.68;;;15.60;99.90;;;;;;5089861;28;20075;-62
2022/10/31 11:41:42;;;;;;;15.25;11.20;;;15.60;99.90;;;;;;5091301;28;20043;-63
2022/10/31 11:44:20;;;;;;;17.83;11.52;;;15.60;99.90;;;;;;5091489;28;20343;-63
2022/10/31 11:46:51;;;;;;;14.07;10.50;;;15.60;99.90;;;;;;5088528;28;20127;-63
2022/10/31 11:49:31;;;;;;;16.98;11.70;;;15.60;99.90;;;;;;5091119;28;20040;-63
2022/10/31 11:52:00;;;;;;;17.83;12.10;;;15.70;99.90;;;;;;5090831;28;20028;-64
2022/10/31 11:54:39;;;;;;;17.75;11.63;;;15.70;99.90;;;;;;5090699;28;20101;-64
2022/10/31 11:57:04;;;;;;;14.30;11.68;;;15.60;99.90;;;;;;5091126;28;20036;-63
2022/10/31 11:59:31;;;;;;;16.30;11.88;;;15.70;99.90;;;;;;5090571;28;20052;-64
2022/10/31 12:01:59;;;;;;;15.13;11.02;;;15.80;99.90;;;;;;5090365;28;20479;-63
2022/10/31 12:04:58;;;;;;;15.02;11.40;;;15.80;99.90;;;;;;5090640;28;20058;-63
2022/10/31 12:07:24;;;;;;;15.35;11.52;;;15.90;99.90;;;;;;5078603;28;20452;-64
2022/10/31 12:09:50;;;;;;;16.10;11.73;;;15.90;99.90;;;;;;5090470;28;20449;-63
2022/10/31 12:12:36;;;;;;;17.20;11.55;;;15.90;99.90;;;;;;5090378;28;20055;-63
2022/10/31 12:15:10;;;;;;;16.15;11.07;;;16.00;99.90;;;;;;5090251;28;20119;-63
2022/10/31 12:17:52;;;;;;;17.67;11.82;;;16.00;99.90;;;;;;5090558;28;20122;-63
2022/10/31 12:20:55;;;;;;;19.27;12.55;;;16.00;99.90;;;;;;5090185;28;20047;-63
2022/10/31 12:23:51;;;;;;;15.65;11.38;;;16.00;99.90;;;;;;5089760;28;20044;-62
2022/10/31 12:26:31;;;;;;;14.73;10.93;;;16.10;99.90;;;;;;5080285;28;20044;-64
2022/10/31 12:29:24;;;;;;;17.30;11.88;;;16.10;99.90;;;;;;5090469;28;20066;-62
2022/10/31 12:32:08;;;;;;;16.15;11.55;;;16.00;99.90;;;;;;5089777;28;20122;-63
2022/10/31 12:34:36;;;;;;;16.00;10.68;;;16.10;99.90;;;;;;5088887;28;20052;-63
2022/10/31 12:38:03;;;;;;;15.50;11.90;;;16.10;99.90;;;;;;5084959;28;20056;-63
2022/10/31 12:40:35;;;;;;;17.92;12.30;;;16.10;99.90;;;;;;5022154;28;20048;-64
2022/10/31 12:43:48;;;;;;;17.48;12.02;;;16.20;99.90;;;;;;5087774;28;20361;-64
2022/10/31 12:46:29;;;;;;;17.25;11.25;;;16.20;99.90;;;;;;5044604;28;20037;-63
2022/10/31 12:49:27;;;;;;;14.98;10.63;;;16.20;99.90;;;;;;5029615;28;20103;-63
2022/10/31 12:52:18;;;;;;;15.02;10.32;;;16.30;99.90;;;;;;5074096;28;20051;-63
2022/10/31 12:54:56;;;;;;;15.43;10.32;;;16.40;99.90;;;;;;5087968;28;20085;-63
2022/10/31 12:57:29;;;;;;;13.65;10.45;;;16.40;99.90;;;;;;5088777;28;20461;-62